createdAt,value
2022-10-24T00:01:21.475Z,11.95
2022-10-24T00:06:19.189Z,11.84
2022-10-24T00:11:20.070Z,11.79
2022-10-24T00:16:16.395Z,11.59
2022-10-24T00:21:13.326Z,11.51
2022-10-24T00:26:11.398Z,11.51
2022-10-24T00:31:13.467Z,11.46
2022-10-24T00:36:14.886Z,11.41
2022-10-24T00:41:15.997Z,11.69
2022-10-24T00:46:13.943Z,11.87
2022-10-24T00:51:32.522Z,12.16
2022-10-24T00:56:32.312Z,12.24
2022-10-24T01:01:28.845Z,12.25
2022-10-24T01:06:53.822Z,12.30
2022-10-24T01:12:03.043Z,12.43
2022-10-24T01:17:25.528Z,12.58
2022-10-24T01:22:32.882Z,12.52
2022-10-24T01:27:44.723Z,12.49
2022-10-24T01:33:11.299Z,12.50
2022-10-24T01:38:31.068Z,12.60
2022-10-24T01:43:33.448Z,12.41
2022-10-24T01:48:35.069Z,12.56
2022-10-24T01:53:31.503Z,12.82
2022-10-24T01:58:27.940Z,12.74
2022-10-24T02:03:30.792Z,12.84
2022-10-24T02:08:34.704Z,12.96
2022-10-24T02:14:18.609Z,12.96
2022-10-24T02:19:16.024Z,12.97
2022-10-24T02:24:18.728Z,12.93
2022-10-24T02:29:25.206Z,13.05
2022-10-24T02:34:23.859Z,13.04
2022-10-24T02:39:21.210Z,13.14
2022-10-24T02:44:19.147Z,13.21
2022-10-24T02:49:15.573Z,13.31
2022-10-24T02:54:12.487Z,13.32
2022-10-24T03:04:06.279Z,13.37
2022-10-24T03:09:02.751Z,13.36
2022-10-24T03:13:59.090Z,13.45
2022-10-24T03:18:55.822Z,13.42
2022-10-24T03:23:52.342Z,13.60
2022-10-24T03:28:48.687Z,13.66
2022-10-24T03:33:45.026Z,13.64
2022-10-24T03:38:41.428Z,13.74
2022-10-24T03:43:37.778Z,13.70
2022-10-24T03:48:34.157Z,13.88
2022-10-24T03:53:30.507Z,13.91
2022-10-24T03:58:27.087Z,13.87
2022-10-24T04:03:23.459Z,13.90
2022-10-24T04:08:20.240Z,13.93
2022-10-24T04:13:16.619Z,14.01
2022-10-24T04:18:13.020Z,13.87
2022-10-24T04:23:09.466Z,13.86
2022-10-24T04:28:05.854Z,13.81
2022-10-24T04:33:02.249Z,13.61
2022-10-24T04:37:58.647Z,13.74
2022-10-24T04:42:55.577Z,13.68
2022-10-24T04:47:52.049Z,13.70
2022-10-24T04:52:48.390Z,13.71
2022-10-24T04:57:44.882Z,13.67
2022-10-24T05:02:41.667Z,13.81
2022-10-24T05:07:38.332Z,13.70
2022-10-24T05:12:34.716Z,13.74
2022-10-24T05:17:31.283Z,13.77
2022-10-24T05:22:27.684Z,13.62
2022-10-24T05:27:26.897Z,13.73
2022-10-24T05:32:24.014Z,13.66
2022-10-24T05:37:20.439Z,13.73
2022-10-24T05:42:17.577Z,13.66
2022-10-24T05:47:14.178Z,13.70
2022-10-24T05:52:10.600Z,13.58
2022-10-24T05:57:07.072Z,13.54
2022-10-24T06:02:03.717Z,13.46
2022-10-24T06:07:00.148Z,13.50
2022-10-24T06:11:56.501Z,13.51
2022-10-24T06:16:52.859Z,13.63
2022-10-24T06:21:49.272Z,13.64
2022-10-24T06:26:45.755Z,13.68
2022-10-24T06:31:42.101Z,13.69
2022-10-24T06:36:38.454Z,13.71
2022-10-24T06:41:34.804Z,13.78
2022-10-24T06:46:31.215Z,14.01
2022-10-24T06:51:27.641Z,14.16
2022-10-24T06:56:24.089Z,14.19
2022-10-24T07:01:23.405Z,14.36
2022-10-24T07:11:25.874Z,14.57
2022-10-24T07:16:22.673Z,14.76
2022-10-24T07:21:22.445Z,15.03
2022-10-24T07:26:20.499Z,15.16
2022-10-24T07:31:17.226Z,15.30
2022-10-24T07:36:22.190Z,15.42
2022-10-24T07:41:18.825Z,15.52
2022-10-24T07:46:17.072Z,15.58
2022-10-24T07:51:14.789Z,15.82
2022-10-24T07:56:15.865Z,16.08
2022-10-24T08:01:20.067Z,16.16
2022-10-24T08:06:19.107Z,16.34
2022-10-24T08:11:18.549Z,16.48
2022-10-24T08:16:17.157Z,16.49
2022-10-24T08:21:15.692Z,16.58
2022-10-24T08:26:14.847Z,16.79
2022-10-24T08:31:16.602Z,17.02
2022-10-24T08:36:30.297Z,17.23
2022-10-24T08:41:26.665Z,17.45
2022-10-24T08:46:28.621Z,17.74
2022-10-24T08:51:37.554Z,17.69
2022-10-24T08:56:34.221Z,17.63
2022-10-24T09:01:44.025Z,17.49
2022-10-24T09:06:40.892Z,17.68
2022-10-24T09:11:55.308Z,17.87
2022-10-24T09:16:57.907Z,17.95
2022-10-24T09:21:56.917Z,17.66
2022-10-24T09:26:53.369Z,17.22
2022-10-24T09:31:49.899Z,17.17
2022-10-24T09:36:46.431Z,17.05
2022-10-24T09:41:46.566Z,16.89
2022-10-24T09:46:45.839Z,16.83
2022-10-24T09:52:04.446Z,16.78
2022-10-24T10:02:46.020Z,16.68
2022-10-24T10:07:48.328Z,16.63
2022-10-24T10:12:54.678Z,16.60
2022-10-24T10:17:53.178Z,16.62
2022-10-24T10:22:49.526Z,16.57
2022-10-24T10:27:51.070Z,16.49
2022-10-24T10:33:00.138Z,16.59
2022-10-24T10:38:09.734Z,16.76
2022-10-24T10:43:24.993Z,16.67
2022-10-24T10:48:42.190Z,16.41
2022-10-24T10:53:50.787Z,16.64
2022-10-24T10:59:07.859Z,16.98
2022-10-24T11:04:19.158Z,17.17
2022-10-24T11:09:33.044Z,17.05
2022-10-24T11:14:39.587Z,16.78
2022-10-24T11:19:54.185Z,16.80
2022-10-24T11:25:01.398Z,16.51
2022-10-24T11:30:13.225Z,16.63
2022-10-24T11:35:29.439Z,16.60
2022-10-24T11:45:56.256Z,16.70
2022-10-24T11:50:59.415Z,16.93
2022-10-24T11:56:06.090Z,17.01
2022-10-24T12:01:24.042Z,16.87
2022-10-24T12:06:42.654Z,16.69
2022-10-24T12:12:01.116Z,16.92
2022-10-24T12:17:06.207Z,17.39
2022-10-24T12:22:05.011Z,17.29
2022-10-24T12:27:31.508Z,17.03
2022-10-24T12:32:39.587Z,16.81
2022-10-24T12:37:36.337Z,16.72
2022-10-24T12:42:32.587Z,16.60
2022-10-24T12:47:30.805Z,16.18
2022-10-24T12:52:30.213Z,15.52
2022-10-24T12:57:31.920Z,15.42
2022-10-24T13:02:52.778Z,15.45
2022-10-24T13:08:08.045Z,15.56
2022-10-24T13:13:26.244Z,15.75
2022-10-24T13:18:36.278Z,16.08
2022-10-24T13:23:33.253Z,16.40
2022-10-24T13:28:35.919Z,16.45
2022-10-24T13:33:32.597Z,16.37
2022-10-24T13:38:29.538Z,16.15
2022-10-24T13:43:26.473Z,15.77
2022-10-24T13:48:33.075Z,15.37
2022-10-24T13:53:41.875Z,15.33
2022-10-24T13:58:44.206Z,15.58
2022-10-24T14:03:43.391Z,15.72
2022-10-24T14:09:00.846Z,15.97
2022-10-24T14:14:04.247Z,16.14
2022-10-24T14:19:32.548Z,16.36
2022-10-24T14:24:30.665Z,16.29
2022-10-24T14:29:32.414Z,16.10
2022-10-24T14:34:33.897Z,16.03
2022-10-24T14:39:33.342Z,16.02
2022-10-24T14:44:29.927Z,16.02
2022-10-24T14:49:26.192Z,16.00
2022-10-24T14:54:26.726Z,16.01
2022-10-24T14:59:35.068Z,16.02
2022-10-24T15:04:38.250Z,15.90
2022-10-24T15:09:34.545Z,15.88
2022-10-24T15:14:38.961Z,15.84
2022-10-24T15:19:38.583Z,15.89
2022-10-24T15:24:35.052Z,15.79
2022-10-24T15:29:31.779Z,15.61
2022-10-24T15:34:29.837Z,15.58
2022-10-24T15:39:26.249Z,15.51
2022-10-24T15:44:26.533Z,15.40
2022-10-24T15:49:22.927Z,15.41
2022-10-24T15:54:21.773Z,15.28
2022-10-24T15:59:19.832Z,15.03
2022-10-24T16:04:17.035Z,14.75
2022-10-24T16:09:16.316Z,14.61
2022-10-24T16:14:14.973Z,14.46
2022-10-24T16:19:11.463Z,14.43
2022-10-24T16:24:08.758Z,14.21
2022-10-24T16:29:05.755Z,14.19
2022-10-24T16:34:02.736Z,14.12
2022-10-24T16:38:59.053Z,14.10
2022-10-24T16:43:57.273Z,13.91
2022-10-24T16:48:54.303Z,13.73
2022-10-24T16:53:50.757Z,13.64
2022-10-24T16:58:47.084Z,13.58
2022-10-24T17:03:45.003Z,13.40
2022-10-24T17:08:41.378Z,13.45
2022-10-24T17:13:37.791Z,13.29
2022-10-24T17:18:35.467Z,13.30
2022-10-24T17:23:32.300Z,13.37
2022-10-24T17:28:33.087Z,13.29
2022-10-24T17:33:29.966Z,13.27
2022-10-24T17:38:55.403Z,13.30
2022-10-24T17:43:53.386Z,13.20
2022-10-24T17:48:50.547Z,13.21
2022-10-24T17:53:46.900Z,13.13
2022-10-24T17:58:43.578Z,12.94
2022-10-24T18:03:39.886Z,12.82
2022-10-24T18:08:36.254Z,12.70
2022-10-24T18:13:35.589Z,12.50
2022-10-24T18:18:31.873Z,12.39
2022-10-24T18:23:28.188Z,12.52
2022-10-24T18:28:24.652Z,12.50
2022-10-24T18:33:20.937Z,12.54
2022-10-24T18:38:18.851Z,12.58
2022-10-24T18:43:16.093Z,12.48
2022-10-24T18:48:12.914Z,12.43
2022-10-24T18:53:22.451Z,12.39
2022-10-24T18:58:20.201Z,12.48
2022-10-24T19:03:33.554Z,12.54
2022-10-24T19:08:30.070Z,12.54
2022-10-24T19:13:27.132Z,12.45
2022-10-24T19:18:25.019Z,12.54
2022-10-24T19:23:21.624Z,12.51
2022-10-24T19:28:19.603Z,12.54
2022-10-24T19:33:16.556Z,12.54
2022-10-24T19:38:17.396Z,12.58
2022-10-24T19:43:14.127Z,12.56
2022-10-24T19:48:11.779Z,12.73
2022-10-24T19:53:08.437Z,12.82
2022-10-24T19:58:08.945Z,12.87
2022-10-24T20:03:05.589Z,12.87
2022-10-24T20:08:01.939Z,12.90
2022-10-24T20:12:58.322Z,12.87
2022-10-24T20:17:54.858Z,12.87
2022-10-24T20:22:51.361Z,12.82
2022-10-24T20:27:48.231Z,12.82
2022-10-24T20:32:44.683Z,12.79
2022-10-24T20:37:41.648Z,12.76
2022-10-24T20:42:38.315Z,12.73
2022-10-24T20:47:34.618Z,12.62
2022-10-24T20:52:30.922Z,12.61
2022-10-24T20:57:27.278Z,12.56
2022-10-24T21:02:23.726Z,12.52
2022-10-24T21:07:20.111Z,12.53
2022-10-24T21:12:16.438Z,12.45
2022-10-24T21:17:13.019Z,12.50
2022-10-24T21:22:09.404Z,12.51
2022-10-24T21:27:05.792Z,12.41
2022-10-24T21:32:02.167Z,12.40
2022-10-24T21:36:58.642Z,12.25
2022-10-24T21:41:54.986Z,12.27
2022-10-24T21:46:51.875Z,12.17
2022-10-24T21:51:48.546Z,12.17
2022-10-24T21:56:45.462Z,12.14
2022-10-24T22:01:43.696Z,12.12
2022-10-24T22:06:40.750Z,12.10
2022-10-24T22:11:37.185Z,12.02
2022-10-24T22:16:34.258Z,12.08
2022-10-24T22:21:33.593Z,12.16
2022-10-24T22:26:30.997Z,12.13
2022-10-24T22:31:29.087Z,12.11
2022-10-24T22:36:40.310Z,12.06
2022-10-24T22:41:36.862Z,12.08
2022-10-24T22:47:07.087Z,12.13
2022-10-24T22:52:03.845Z,12.10
2022-10-24T22:57:00.689Z,12.16
2022-10-24T23:02:04.941Z,12.17
2022-10-24T23:07:27.426Z,12.24
2022-10-24T23:12:24.686Z,12.24
2022-10-24T23:17:26.768Z,12.23
2022-10-24T23:22:27.335Z,12.33
2022-10-24T23:27:34.340Z,12.35
2022-10-24T23:32:33.109Z,12.37
2022-10-24T23:37:42.318Z,12.39
2022-10-24T23:42:38.860Z,12.36
2022-10-24T23:47:56.302Z,12.32
2022-10-24T23:53:18.453Z,12.35
2022-10-24T23:58:14.869Z,12.39
